createdAt,value
2019-04-14T00:02:05.356Z,18.50
2019-04-14T00:04:42.252Z,20.80
2019-04-14T00:07:12.197Z,19.63
2019-04-14T00:09:43.166Z,20.70
2019-04-14T00:12:14.277Z,20.30
2019-04-14T00:14:44.672Z,19.67
2019-04-14T00:17:19.963Z,21.00
2019-04-14T00:19:58.943Z,19.60
2019-04-14T00:22:29.545Z,18.23
2019-04-14T00:24:59.870Z,17.70
2019-04-14T00:27:28.932Z,19.27
2019-04-14T00:29:58.993Z,19.33
2019-04-14T00:32:31.203Z,20.13
2019-04-14T00:35:21.254Z,19.07
2019-04-14T00:38:13.034Z,19.80
2019-04-14T00:41:09.551Z,15.77
2019-04-14T00:43:47.042Z,16.97
2019-04-14T00:46:36.803Z,19.40
2019-04-14T00:49:06.948Z,21.57
2019-04-14T00:51:38.285Z,19.00
2019-04-14T00:54:13.407Z,19.67
2019-04-14T00:56:43.344Z,19.80
2019-04-14T00:59:13.612Z,17.87
2019-04-14T01:01:45.700Z,20.53
2019-04-14T01:04:15.041Z,17.10
2019-04-14T01:06:44.889Z,21.47
2019-04-14T01:09:15.198Z,18.23
2019-04-14T01:11:44.389Z,21.97
2019-04-14T01:14:16.982Z,19.30
2019-04-14T01:16:47.663Z,17.47
2019-04-14T01:19:21.995Z,18.47
2019-04-14T01:21:52.428Z,21.53
2019-04-14T01:24:23.473Z,19.40
2019-04-14T01:26:55.001Z,19.93
2019-04-14T01:29:25.428Z,18.67
2019-04-14T01:31:56.287Z,18.27
2019-04-14T01:34:26.013Z,17.20
2019-04-14T01:36:58.574Z,18.30
2019-04-14T01:39:29.245Z,18.70
2019-04-14T01:42:03.010Z,16.40
2019-04-14T01:44:33.023Z,21.47
2019-04-14T01:47:03.172Z,19.47
2019-04-14T01:49:33.283Z,18.33
2019-04-14T01:52:23.186Z,20.10
2019-04-14T01:55:22.231Z,16.03
2019-04-14T01:58:10.057Z,19.33
2019-04-14T02:00:55.392Z,17.07
2019-04-14T02:03:25.972Z,18.30
2019-04-14T02:05:56.097Z,18.20
2019-04-14T02:08:26.790Z,17.00
2019-04-14T02:11:03.002Z,19.90
2019-04-14T02:13:37.575Z,20.10
2019-04-14T02:16:18.494Z,20.43
2019-04-14T02:18:40.610Z,18.93
2019-04-14T02:21:10.779Z,20.83
2019-04-14T02:23:41.125Z,18.70
2019-04-14T02:26:11.233Z,20.83
2019-04-14T02:28:41.746Z,18.63
2019-04-14T02:31:24.685Z,20.20
2019-04-14T02:34:08.021Z,17.83
2019-04-14T02:36:40.240Z,19.03
2019-04-14T02:39:33.842Z,20.00
2019-04-14T02:42:02.580Z,17.97
2019-04-14T02:47:00.988Z,20.03
2019-04-14T02:49:27.280Z,18.53
2019-04-14T02:51:58.560Z,16.10
2019-04-14T02:54:43.561Z,17.93
2019-04-14T02:57:17.654Z,16.90
2019-04-14T02:59:56.955Z,16.77
2019-04-14T03:04:51.021Z,20.00
2019-04-14T03:07:45.774Z,17.10
2019-04-14T03:10:06.917Z,18.13
2019-04-14T03:12:43.968Z,16.90
2019-04-14T03:15:07.245Z,19.37
2019-04-14T03:18:00.086Z,20.90
2019-04-14T03:20:40.092Z,18.23
2019-04-14T03:23:25.274Z,19.37
2019-04-14T03:25:51.292Z,20.13
2019-04-14T03:28:33.609Z,20.20
2019-04-14T03:34:12.947Z,19.50
2019-04-14T03:43:54.439Z,19.17
2019-04-14T03:49:06.117Z,20.13
2019-04-14T03:51:45.058Z,20.13
2019-04-14T03:53:58.481Z,21.23
2019-04-14T03:56:47.277Z,24.93
2019-04-14T03:59:19.824Z,22.00
2019-04-14T04:01:50.611Z,18.13
2019-04-14T04:04:22.713Z,23.70
2019-04-14T04:06:53.154Z,20.40
2019-04-14T04:09:26.065Z,20.40
2019-04-14T04:11:56.392Z,20.63
2019-04-14T04:14:26.978Z,22.07
2019-04-14T04:17:34.150Z,21.07
2019-04-14T04:20:13.400Z,22.03
2019-04-14T04:23:09.554Z,20.77
2019-04-14T04:25:46.631Z,20.63
2019-04-14T04:28:27.848Z,21.70
2019-04-14T04:31:19.864Z,19.90
2019-04-14T04:33:56.330Z,20.47
2019-04-14T04:36:35.668Z,21.17
2019-04-14T04:39:17.093Z,20.77
2019-04-14T04:41:49.329Z,20.37
2019-04-14T04:44:22.436Z,19.10
2019-04-14T04:46:54.804Z,21.00
2019-04-14T04:49:27.312Z,20.67
2019-04-14T04:51:55.160Z,19.60
2019-04-14T04:54:25.755Z,22.10
2019-04-14T04:56:58.006Z,19.07
2019-04-14T04:59:30.148Z,20.60
2019-04-14T05:02:00.446Z,20.67
2019-04-14T05:04:31.138Z,21.00
2019-04-14T05:07:01.572Z,21.43
2019-04-14T05:10:00.166Z,21.17
2019-04-14T05:12:41.317Z,24.70
2019-04-14T05:15:40.260Z,19.70
2019-04-14T05:18:20.384Z,22.23
2019-04-14T05:20:51.464Z,22.33
2019-04-14T05:23:23.907Z,21.60
2019-04-14T05:25:53.861Z,22.60
2019-04-14T05:28:24.407Z,19.23
2019-04-14T05:30:54.704Z,20.60
2019-04-14T05:33:27.166Z,20.40
2019-04-14T05:35:57.443Z,21.07
2019-04-14T05:38:32.163Z,21.00
2019-04-14T05:41:07.007Z,21.97
2019-04-14T05:43:48.155Z,20.97
2019-04-14T05:46:11.971Z,23.50
2019-04-14T05:48:42.489Z,21.50
2019-04-14T05:51:11.627Z,20.43
2019-04-14T05:53:41.577Z,20.07
2019-04-14T05:56:14.374Z,18.53
2019-04-14T05:58:44.638Z,21.03
2019-04-14T06:01:14.344Z,20.27
2019-04-14T06:03:43.503Z,23.73
2019-04-14T06:06:12.563Z,22.40
2019-04-14T06:08:41.605Z,21.40
2019-04-14T06:11:15.139Z,20.40
2019-04-14T06:13:44.260Z,22.67
2019-04-14T06:16:13.363Z,19.33
2019-04-14T06:18:42.617Z,20.93
2019-04-14T06:21:14.379Z,21.70
2019-04-14T06:23:46.262Z,22.00
2019-04-14T06:26:23.661Z,22.80
2019-04-14T06:28:52.690Z,20.80
2019-04-14T06:31:39.650Z,19.70
2019-04-14T06:34:19.304Z,20.30
2019-04-14T06:37:08.104Z,19.63
2019-04-14T06:39:40.668Z,21.33
2019-04-14T06:42:14.247Z,20.50
2019-04-14T06:44:44.914Z,22.30
2019-04-14T06:47:14.032Z,19.97
2019-04-14T06:49:48.797Z,20.40
2019-04-14T06:52:21.129Z,20.20
2019-04-14T06:54:50.255Z,21.53
2019-04-14T06:57:19.727Z,22.13
2019-04-14T06:59:51.914Z,22.33
2019-04-14T07:02:22.951Z,21.60
2019-04-14T07:04:52.032Z,23.30
2019-04-14T07:07:22.659Z,23.27
2019-04-14T07:09:51.741Z,20.60
2019-04-14T07:12:20.930Z,21.87
2019-04-14T07:14:53.283Z,21.23
2019-04-14T07:17:24.856Z,21.40
2019-04-14T07:20:01.839Z,19.97
2019-04-14T07:22:30.216Z,19.30
2019-04-14T07:24:59.357Z,20.17
2019-04-14T07:27:30.075Z,23.73
2019-04-14T07:30:21.106Z,21.97
2019-04-14T07:33:07.159Z,20.93
2019-04-14T07:35:47.709Z,22.10
2019-04-14T07:38:25.899Z,21.97
2019-04-14T07:41:19.555Z,23.97
2019-04-14T07:44:02.808Z,21.07
2019-04-14T07:46:54.988Z,23.10
2019-04-14T07:49:47.060Z,21.90
2019-04-14T07:52:33.910Z,20.47
2019-04-14T07:55:26.411Z,19.20
2019-04-14T07:58:19.877Z,20.77
2019-04-14T08:00:56.284Z,22.50
2019-04-14T08:03:45.299Z,21.23
2019-04-14T08:06:15.945Z,23.20
2019-04-14T08:08:51.291Z,21.93
2019-04-14T08:11:21.757Z,22.10
2019-04-14T08:13:54.661Z,23.93
2019-04-14T08:16:25.332Z,21.70
2019-04-14T08:18:54.455Z,21.23
2019-04-14T08:21:23.543Z,22.00
2019-04-14T08:23:54.133Z,20.93
2019-04-14T08:26:23.638Z,22.20
2019-04-14T08:28:53.511Z,22.30
2019-04-14T08:31:22.690Z,24.33
2019-04-14T08:33:53.011Z,23.43
2019-04-14T08:36:22.095Z,22.10
2019-04-14T08:38:52.597Z,22.20
2019-04-14T08:41:26.537Z,23.30
2019-04-14T08:44:20.774Z,21.90
2019-04-14T08:47:10.825Z,23.10
2019-04-14T08:49:47.563Z,20.83
2019-04-14T08:52:57.873Z,20.53
2019-04-14T08:55:46.013Z,22.20
2019-04-14T08:58:39.904Z,23.53
2019-04-14T09:01:47.924Z,21.73
2019-04-14T09:04:22.231Z,21.50
2019-04-14T09:07:20.366Z,22.77
2019-04-14T09:10:05.943Z,21.97
2019-04-14T09:12:40.121Z,22.60
2019-04-14T09:15:11.834Z,24.80
2019-04-14T09:17:40.922Z,25.27
2019-04-14T09:20:11.378Z,25.23
2019-04-14T09:22:40.352Z,22.20
2019-04-14T09:25:09.434Z,24.13
2019-04-14T09:27:38.526Z,23.47
2019-04-14T09:30:08.576Z,24.53
2019-04-14T09:32:39.479Z,27.13
2019-04-14T09:35:08.708Z,24.13
2019-04-14T09:37:37.789Z,25.10
2019-04-14T09:40:07.129Z,23.77
2019-04-14T09:42:39.095Z,23.60
2019-04-14T09:45:10.484Z,23.80
2019-04-14T09:47:42.484Z,24.90
2019-04-14T09:50:11.637Z,25.70
2019-04-14T09:52:40.754Z,21.70
2019-04-14T09:55:11.328Z,23.40
2019-04-14T09:57:42.897Z,26.37
2019-04-14T10:00:17.638Z,23.57
2019-04-14T10:03:08.990Z,23.90
2019-04-14T10:05:38.117Z,25.30
2019-04-14T10:08:07.283Z,24.60
2019-04-14T10:10:36.654Z,24.37
2019-04-14T10:13:06.198Z,22.57
2019-04-14T10:15:36.513Z,25.17
2019-04-14T10:18:06.751Z,25.00
2019-04-14T10:20:36.072Z,25.77
2019-04-14T10:23:05.171Z,23.10
2019-04-14T10:25:36.629Z,21.50
2019-04-14T10:28:07.073Z,22.87
2019-04-14T10:30:38.657Z,24.57
2019-04-14T10:33:07.758Z,25.50
2019-04-14T10:35:36.806Z,22.90
2019-04-14T10:38:05.903Z,23.07
2019-04-14T10:40:35.178Z,24.60
2019-04-14T10:43:04.397Z,26.50
2019-04-14T10:45:33.476Z,24.50
2019-04-14T10:48:02.551Z,24.63
2019-04-14T10:50:33.488Z,25.40
2019-04-14T10:53:03.623Z,24.67
2019-04-14T10:55:39.820Z,24.80
2019-04-14T10:58:11.243Z,23.97
2019-04-14T11:00:40.354Z,22.37
2019-04-14T11:03:09.621Z,22.77
2019-04-14T11:05:59.765Z,23.20
2019-04-14T11:08:28.812Z,22.67
2019-04-14T11:10:57.860Z,23.97
2019-04-14T11:13:28.009Z,23.37
2019-04-14T11:15:58.757Z,23.70
2019-04-14T11:18:27.855Z,24.40
2019-04-14T11:20:56.929Z,26.60
2019-04-14T11:23:26.009Z,26.97
2019-04-14T11:25:55.056Z,23.07
2019-04-14T11:28:24.131Z,24.50
2019-04-14T11:30:54.313Z,24.23
2019-04-14T11:33:51.281Z,25.70
2019-04-14T11:36:48.339Z,23.90
2019-04-14T11:39:19.320Z,23.70
2019-04-14T11:41:48.465Z,27.00
2019-04-14T11:44:17.569Z,26.87
2019-04-14T11:46:46.640Z,26.67
2019-04-14T11:49:16.591Z,25.10
2019-04-14T11:51:55.104Z,25.37
2019-04-14T11:54:21.189Z,24.20
2019-04-14T11:56:53.205Z,24.57
2019-04-14T11:59:46.787Z,25.20
2019-04-14T12:02:24.007Z,24.73
2019-04-14T12:05:21.075Z,22.60
2019-04-14T12:08:12.076Z,24.60
2019-04-14T12:10:42.574Z,25.40
2019-04-14T12:13:11.666Z,24.30
2019-04-14T12:15:43.951Z,26.73
2019-04-14T12:18:18.297Z,25.27
2019-04-14T12:20:47.363Z,23.30
2019-04-14T12:23:16.691Z,25.20
2019-04-14T12:25:46.982Z,26.43
2019-04-14T12:28:17.258Z,26.03
2019-04-14T12:30:47.090Z,23.30
2019-04-14T12:33:22.791Z,25.47
2019-04-14T12:35:51.843Z,23.30
2019-04-14T12:38:20.912Z,26.03
2019-04-14T12:40:50.774Z,26.70
2019-04-14T12:43:38.977Z,21.40
2019-04-14T12:46:36.406Z,27.57
2019-04-14T12:49:18.584Z,26.00
2019-04-14T12:52:20.272Z,25.03
2019-04-14T12:54:41.283Z,25.97
2019-04-14T12:57:10.357Z,23.60
2019-04-14T12:59:39.439Z,25.03
2019-04-14T13:02:17.696Z,26.90
2019-04-14T13:04:47.740Z,21.73
2019-04-14T13:07:16.836Z,23.90
2019-04-14T13:09:45.922Z,25.57
2019-04-14T13:12:15.149Z,24.47
2019-04-14T13:14:46.452Z,21.17
2019-04-14T13:17:20.176Z,22.17
2019-04-14T13:19:52.205Z,20.67
2019-04-14T13:22:32.965Z,16.97
2019-04-14T13:24:53.360Z,18.33
2019-04-14T13:27:23.314Z,19.50
2019-04-14T13:29:55.455Z,18.60
2019-04-14T13:32:35.795Z,17.17
2019-04-14T13:35:02.152Z,17.30
2019-04-14T13:37:43.321Z,17.03
2019-04-14T13:40:16.458Z,17.17
2019-04-14T13:42:46.268Z,15.67
2019-04-14T13:45:24.387Z,18.13
2019-04-14T13:47:57.951Z,16.63
2019-04-14T13:50:27.032Z,16.87
2019-04-14T13:52:58.034Z,13.93
2019-04-14T13:55:31.531Z,14.33
2019-04-14T13:58:00.789Z,15.47
2019-04-14T14:00:29.944Z,15.50
2019-04-14T14:02:59.306Z,15.63
2019-04-14T14:05:29.464Z,16.30
2019-04-14T14:08:01.627Z,16.97
2019-04-14T14:10:33.440Z,16.03
2019-04-14T14:13:17.458Z,14.90
2019-04-14T14:16:30.229Z,15.37
2019-04-14T14:19:07.241Z,14.77
2019-04-14T14:22:01.139Z,15.80
2019-04-14T14:24:51.665Z,15.10
2019-04-14T14:27:20.754Z,16.73
2019-04-14T14:29:49.887Z,17.50
2019-04-14T14:32:26.732Z,15.47
2019-04-14T14:34:55.773Z,14.70
2019-04-14T14:37:25.003Z,16.50
2019-04-14T14:39:55.176Z,16.67
2019-04-14T14:42:30.317Z,16.20
2019-04-14T14:45:27.535Z,16.50
2019-04-14T14:48:09.385Z,16.23
2019-04-14T14:50:46.995Z,16.27
2019-04-14T14:53:16.130Z,15.50
2019-04-14T14:55:46.768Z,15.23
2019-04-14T14:58:18.479Z,17.37
2019-04-14T15:00:48.923Z,16.37
2019-04-14T15:03:20.425Z,17.27
2019-04-14T15:05:49.512Z,17.47
2019-04-14T15:08:18.755Z,15.60
2019-04-14T15:10:49.374Z,15.37
2019-04-14T15:13:18.669Z,16.00
2019-04-14T15:15:47.788Z,17.40
2019-04-14T15:18:16.864Z,17.47
2019-04-14T15:20:50.825Z,17.13
2019-04-14T15:23:25.184Z,14.90
2019-04-14T15:25:54.150Z,17.63
2019-04-14T15:28:23.241Z,16.20
2019-04-14T15:30:54.430Z,15.57
2019-04-14T15:33:24.920Z,15.00
2019-04-14T15:35:54.195Z,16.63
2019-04-14T15:38:23.347Z,14.80
2019-04-14T15:40:52.410Z,15.30
2019-04-14T15:43:21.477Z,15.80
2019-04-14T15:45:50.544Z,16.37
2019-04-14T15:48:19.688Z,14.30
2019-04-14T15:50:49.897Z,16.97
2019-04-14T15:53:20.401Z,16.37
2019-04-14T15:55:55.272Z,15.73
2019-04-14T15:58:53.496Z,14.93
2019-04-14T16:01:54.888Z,16.57
2019-04-14T16:04:41.271Z,17.57
2019-04-14T16:07:20.190Z,14.67
2019-04-14T16:10:11.324Z,16.83
2019-04-14T16:12:53.514Z,15.23
2019-04-14T16:15:48.890Z,14.93
2019-04-14T16:18:37.003Z,15.27
2019-04-14T16:21:11.094Z,15.70
2019-04-14T16:23:52.277Z,15.30
2019-04-14T16:26:43.433Z,14.03
2019-04-14T16:29:19.019Z,14.57
2019-04-14T16:32:24.695Z,13.67
2019-04-14T16:35:04.475Z,14.10
2019-04-14T16:37:40.616Z,15.27
2019-04-14T16:40:09.793Z,15.67
2019-04-14T16:42:38.841Z,14.57
2019-04-14T16:45:14.923Z,14.90
2019-04-14T16:47:44.010Z,13.33
2019-04-14T16:50:14.865Z,15.00
2019-04-14T16:53:05.054Z,14.90
2019-04-14T16:55:56.262Z,13.30
2019-04-14T16:58:33.306Z,14.17
2019-04-14T17:01:07.276Z,13.70
2019-04-14T17:03:36.777Z,13.10
2019-04-14T17:06:09.162Z,12.70
2019-04-14T17:08:42.892Z,12.10
2019-04-14T17:11:16.459Z,13.53
2019-04-14T17:13:52.492Z,12.43
2019-04-14T17:16:46.755Z,11.57
2019-04-14T17:19:31.685Z,12.00
2019-04-14T17:22:30.746Z,12.80
2019-04-14T17:25:18.635Z,12.70
2019-04-14T17:28:12.899Z,13.00
2019-04-14T17:30:48.526Z,13.00
2019-04-14T17:33:33.050Z,13.30
2019-04-14T17:36:07.921Z,12.97
2019-04-14T17:38:46.503Z,12.30
2019-04-14T17:41:21.779Z,12.07
2019-04-14T17:44:03.357Z,10.60
2019-04-14T17:46:50.351Z,11.70
2019-04-14T17:49:44.454Z,10.13
2019-04-14T17:52:47.869Z,11.70
2019-04-14T17:55:49.367Z,11.10
2019-04-14T17:58:36.696Z,12.53
2019-04-14T18:01:16.098Z,10.57
2019-04-14T18:03:55.753Z,12.20
2019-04-14T18:06:38.835Z,12.63
2019-04-14T18:09:22.756Z,10.23
2019-04-14T18:12:14.111Z,10.47
2019-04-14T18:14:48.063Z,10.37
2019-04-14T18:17:36.158Z,12.73
2019-04-14T18:20:13.626Z,10.80
2019-04-14T18:22:42.855Z,11.10
2019-04-14T18:25:15.754Z,10.03
2019-04-14T18:28:09.451Z,11.60
2019-04-14T18:30:44.765Z,10.33
2019-04-14T18:33:31.571Z,9.20
2019-04-14T18:36:05.343Z,12.00
2019-04-14T18:38:43.702Z,10.53
2019-04-14T18:41:19.876Z,12.33
2019-04-14T18:44:10.975Z,11.93
2019-04-14T18:47:02.382Z,11.97
2019-04-14T18:49:47.851Z,10.40
2019-04-14T18:52:37.114Z,11.10
2019-04-14T18:55:28.364Z,10.80
2019-04-14T18:58:13.967Z,9.37
2019-04-14T19:00:50.932Z,10.73
2019-04-14T19:03:20.775Z,13.07
2019-04-14T19:05:50.109Z,12.50
2019-04-14T19:08:23.962Z,10.57
2019-04-14T19:11:17.530Z,10.40
2019-04-14T19:13:50.103Z,9.40
2019-04-14T19:16:25.099Z,11.70
2019-04-14T19:18:59.065Z,10.40
2019-04-14T19:21:30.512Z,12.30
2019-04-14T19:24:02.690Z,12.40
2019-04-14T19:26:31.890Z,12.00
2019-04-14T19:29:00.996Z,11.10
2019-04-14T19:31:30.931Z,11.77
2019-04-14T19:34:00.112Z,11.50
2019-04-14T19:36:31.480Z,11.70
2019-04-14T19:39:00.115Z,11.83
2019-04-14T19:41:29.181Z,9.83
2019-04-14T19:43:58.307Z,12.90
2019-04-14T19:46:27.432Z,11.87
2019-04-14T19:48:56.792Z,12.00
2019-04-14T19:51:26.896Z,11.67
2019-04-14T19:54:03.613Z,11.03
2019-04-14T19:56:32.945Z,12.77
2019-04-14T19:59:03.081Z,12.40
2019-04-14T20:01:33.742Z,12.40
2019-04-14T20:04:02.839Z,11.27
2019-04-14T20:06:32.396Z,11.47
2019-04-14T20:09:01.444Z,11.50
2019-04-14T20:11:32.252Z,11.47
2019-04-14T20:14:01.330Z,13.33
2019-04-14T20:16:53.479Z,13.33
2019-04-14T20:19:55.131Z,12.47
2019-04-14T20:22:43.227Z,11.30
2019-04-14T20:25:41.328Z,11.37
2019-04-14T20:28:38.834Z,12.60
2019-04-14T20:31:25.724Z,11.77
2019-04-14T20:33:55.535Z,13.10
2019-04-14T20:36:24.708Z,11.93
2019-04-14T20:38:53.849Z,11.83
2019-04-14T20:41:22.951Z,12.40
2019-04-14T20:43:52.038Z,12.60
2019-04-14T20:46:21.088Z,13.10
2019-04-14T20:48:50.178Z,12.90
2019-04-14T20:51:19.222Z,14.03
2019-04-14T20:53:51.213Z,12.30
2019-04-14T20:56:21.968Z,10.67
2019-04-14T20:58:54.176Z,11.00
2019-04-14T21:01:24.539Z,12.00
2019-04-14T21:04:09.248Z,10.30
2019-04-14T21:07:02.839Z,11.60
2019-04-14T21:10:06.427Z,11.80
2019-04-14T21:13:08.163Z,10.17
2019-04-14T21:16:11.949Z,11.37
2019-04-14T21:18:55.879Z,10.73
2019-04-14T21:21:45.001Z,10.93
2019-04-14T21:24:23.488Z,8.57
2019-04-14T21:27:11.549Z,10.40
2019-04-14T21:30:06.159Z,9.37
2019-04-14T21:32:41.917Z,10.73
2019-04-14T21:35:33.525Z,10.43
2019-04-14T21:38:18.459Z,8.83
2019-04-14T21:40:55.390Z,10.10
2019-04-14T21:43:26.128Z,9.83
2019-04-14T21:45:55.280Z,10.27
2019-04-14T21:48:24.373Z,10.93
2019-04-14T21:50:53.449Z,9.90
2019-04-14T21:53:22.508Z,9.53
2019-04-14T21:55:51.579Z,8.50
2019-04-14T21:58:26.637Z,11.87
2019-04-14T22:01:49.690Z,10.67
2019-04-14T22:04:50.165Z,9.50
2019-04-14T22:07:34.894Z,8.47
2019-04-14T22:10:24.001Z,9.30
2019-04-14T22:12:53.164Z,10.60
2019-04-14T22:15:22.263Z,10.43
2019-04-14T22:17:52.482Z,9.47
2019-04-14T22:20:23.172Z,9.03
2019-04-14T22:22:52.639Z,10.67
2019-04-14T22:25:23.344Z,10.67
2019-04-14T22:27:52.417Z,10.10
2019-04-14T22:30:21.500Z,10.50
2019-04-14T22:32:50.536Z,9.83
2019-04-14T22:35:19.604Z,9.60
2019-04-14T22:37:48.688Z,9.67
2019-04-14T22:40:19.304Z,10.53
2019-04-14T22:42:57.664Z,10.10
2019-04-14T22:45:30.890Z,10.30
2019-04-14T22:48:00.319Z,10.47
2019-04-14T22:50:29.368Z,10.50
2019-04-14T22:52:58.444Z,10.83
2019-04-14T22:55:27.536Z,11.60
2019-04-14T22:57:59.500Z,9.50
2019-04-14T23:00:56.452Z,9.53
2019-04-14T23:03:51.890Z,9.27
2019-04-14T23:06:39.892Z,10.10
2019-04-14T23:09:43.453Z,9.90
2019-04-14T23:12:37.254Z,9.73
2019-04-14T23:15:30.947Z,10.00
2019-04-14T23:18:29.619Z,10.70
2019-04-14T23:21:14.741Z,9.80
2019-04-14T23:24:03.503Z,9.30
2019-04-14T23:26:51.433Z,10.10
2019-04-14T23:29:09.865Z,10.17
2019-04-14T23:31:38.976Z,9.33
2019-04-14T23:34:08.135Z,10.10
2019-04-14T23:36:37.191Z,10.40
2019-04-14T23:39:10.613Z,9.60
2019-04-14T23:41:42.246Z,9.20
2019-04-14T23:44:11.334Z,9.80
2019-04-14T23:46:40.407Z,10.63
2019-04-14T23:49:09.813Z,10.27
2019-04-14T23:51:40.197Z,9.40
2019-04-14T23:54:09.289Z,10.40
2019-04-14T23:56:41.627Z,11.30
2019-04-14T23:59:10.987Z,11.50
